sensor_id;sensor_type;location;lat;lon;timestamp;pressure;altitude;pressure_sealevel;temperature;humidity
58843;BME280;44614;54.356;10.100;2023-03-26T00:02:14;99721.72;;;5.85;100.00
58843;BME280;44614;54.356;10.100;2023-03-26T00:04:40;99766.84;;;6.13;100.00
58843;BME280;44614;54.356;10.100;2023-03-26T00:07:06;99766.25;;;6.11;100.00
58843;BME280;44614;54.356;10.100;2023-03-26T00:09:34;99754.75;;;6.02;100.00
58843;BME280;44614;54.356;10.100;2023-03-26T00:11:59;99763.72;;;6.09;100.00
58843;BME280;44614;54.356;10.100;2023-03-26T00:14:24;99772.53;;;6.12;100.00
58843;BME280;44614;54.356;10.100;2023-03-26T00:16:50;99757.47;;;6.02;100.00
58843;BME280;44614;54.356;10.100;2023-03-26T00:19:17;99770.25;;;6.08;100.00
58843;BME280;44614;54.356;10.100;2023-03-26T00:21:43;99766.28;;;6.04;100.00
58843;BME280;44614;54.356;10.100;2023-03-26T00:24:11;99791.81;;;6.10;100.00
58843;BME280;44614;54.356;10.100;2023-03-26T00:26:38;99763.84;;;5.96;100.00
58843;BME280;44614;54.356;10.100;2023-03-26T00:29:05;99788.25;;;6.09;100.00
58843;BME280;44614;54.356;10.100;2023-03-26T00:31:32;99779.75;;;5.99;100.00
58843;BME280;44614;54.356;10.100;2023-03-26T00:33:58;99793.38;;;5.99;100.00
58843;BME280;44614;54.356;10.100;2023-03-26T00:36:27;99803.38;;;6.05;100.00
58843;BME280;44614;54.356;10.100;2023-03-26T00:38:53;99806.13;;;6.05;100.00
58843;BME280;44614;54.356;10.100;2023-03-26T00:41:20;99803.41;;;5.99;100.00
58843;BME280;44614;54.356;10.100;2023-03-26T00:43:56;99811.13;;;6.08;100.00
58843;BME280;44614;54.356;10.100;2023-03-26T00:46:22;99820.56;;;6.06;100.00
58843;BME280;44614;54.356;10.100;2023-03-26T00:48:48;99817.25;;;6.04;100.00
58843;BME280;44614;54.356;10.100;2023-03-26T00:51:15;99808.44;;;6.02;100.00
58843;BME280;44614;54.356;10.100;2023-03-26T00:53:43;99820.81;;;6.04;100.00
58843;BME280;44614;54.356;10.100;2023-03-26T00:56:09;99825.44;;;6.04;100.00
58843;BME280;44614;54.356;10.100;2023-03-26T00:58:35;99828.97;;;6.04;100.00
58843;BME280;44614;54.356;10.100;2023-03-26T01:01:04;99824.34;;;6.05;100.00
58843;BME280;44614;54.356;10.100;2023-03-26T01:03:34;99796.38;;;5.84;100.00
58843;BME280;44614;54.356;10.100;2023-03-26T01:06:02;99828.75;;;6.06;100.00
58843;BME280;44614;54.356;10.100;2023-03-26T01:08:33;99832.53;;;6.05;100.00
58843;BME280;44614;54.356;10.100;2023-03-26T01:11:09;99818.97;;;5.92;100.00
58843;BME280;44614;54.356;10.100;2023-03-26T01:13:40;99850.56;;;6.06;100.00
58843;BME280;44614;54.356;10.100;2023-03-26T01:16:13;99850.78;;;6.04;100.00
58843;BME280;44614;54.356;10.100;2023-03-26T01:18:44;99856.47;;;6.03;100.00
58843;BME280;44614;54.356;10.100;2023-03-26T01:21:10;99859.38;;;6.01;100.00
58843;BME280;44614;54.356;10.100;2023-03-26T01:23:42;99857.72;;;6.00;100.00
58843;BME280;44614;54.356;10.100;2023-03-26T01:26:24;99862.53;;;5.98;100.00
58843;BME280;44614;54.356;10.100;2023-03-26T01:28:55;99866.75;;;5.94;100.00
58843;BME280;44614;54.356;10.100;2023-03-26T01:31:34;99866.56;;;5.96;100.00
58843;BME280;44614;54.356;10.100;2023-03-26T01:34:19;99873.88;;;5.95;100.00
58843;BME280;44614;54.356;10.100;2023-03-26T01:37:03;99867.81;;;5.93;100.00
58843;BME280;44614;54.356;10.100;2023-03-26T01:39:35;99870.75;;;5.92;100.00
58843;BME280;44614;54.356;10.100;2023-03-26T01:42:11;99872.59;;;5.91;100.00
58843;BME280;44614;54.356;10.100;2023-03-26T01:44:54;99810.38;;;5.30;100.00
58843;BME280;44614;54.356;10.100;2023-03-26T01:47:22;99878.94;;;5.85;100.00
58843;BME280;44614;54.356;10.100;2023-03-26T01:49:47;99884.38;;;5.85;100.00
58843;BME280;44614;54.356;10.100;2023-03-26T01:52:20;99887.09;;;5.85;100.00
58843;BME280;44614;54.356;10.100;2023-03-26T01:54:49;99875.41;;;5.78;100.00
58843;BME280;44614;54.356;10.100;2023-03-26T01:57:23;99890.03;;;5.83;100.00
58843;BME280;44614;54.356;10.100;2023-03-26T02:02:33;99877.88;;;5.79;100.00
58843;BME280;44614;54.356;10.100;2023-03-26T02:05:14;99887.13;;;5.78;100.00
58843;BME280;44614;54.356;10.100;2023-03-26T02:07:52;99879.19;;;5.77;100.00
58843;BME280;44614;54.356;10.100;2023-03-26T02:12:45;99884.81;;;5.75;100.00
58843;BME280;44614;54.356;10.100;2023-03-26T02:15:11;99891.56;;;5.73;100.00
58843;BME280;44614;54.356;10.100;2023-03-26T02:17:37;99883.59;;;5.71;100.00
58843;BME280;44614;54.356;10.100;2023-03-26T02:20:10;99886.31;;;5.71;100.00
58843;BME280;44614;54.356;10.100;2023-03-26T02:22:37;99899.09;;;5.71;100.00
58843;BME280;44614;54.356;10.100;2023-03-26T02:25:11;99898.09;;;5.65;100.00
58843;BME280;44614;54.356;10.100;2023-03-26T02:27:38;99895.97;;;5.60;100.00
58843;BME280;44614;54.356;10.100;2023-03-26T02:30:06;99902.47;;;5.59;100.00
58843;BME280;44614;54.356;10.100;2023-03-26T02:32:32;99891.59;;;5.59;100.00
58843;BME280;44614;54.356;10.100;2023-03-26T02:34:59;99895.78;;;5.55;100.00
58843;BME280;44614;54.356;10.100;2023-03-26T02:37:24;99893.47;;;5.52;100.00
58843;BME280;44614;54.356;10.100;2023-03-26T02:39:50;99902.06;;;5.49;100.00
58843;BME280;44614;54.356;10.100;2023-03-26T02:42:15;99898.50;;;5.49;100.00
58843;BME280;44614;54.356;10.100;2023-03-26T02:44:40;99905.84;;;5.48;100.00
58843;BME280;44614;54.356;10.100;2023-03-26T02:47:06;99904.59;;;5.44;100.00
58843;BME280;44614;54.356;10.100;2023-03-26T02:49:31;99878.47;;;5.23;100.00
58843;BME280;44614;54.356;10.100;2023-03-26T02:51:58;99892.06;;;5.30;100.00
58843;BME280;44614;54.356;10.100;2023-03-26T02:54:23;99898.75;;;5.34;100.00
58843;BME280;44614;54.356;10.100;2023-03-26T02:56:48;99895.41;;;5.32;100.00
58843;BME280;44614;54.356;10.100;2023-03-26T02:59:14;99901.69;;;5.32;100.00
58843;BME280;44614;54.356;10.100;2023-03-26T03:01:40;99902.75;;;5.31;100.00
58843;BME280;44614;54.356;10.100;2023-03-26T03:04:11;99900.22;;;5.30;100.00
58843;BME280;44614;54.356;10.100;2023-03-26T03:06:37;99877.00;;;5.07;100.00
58843;BME280;44614;54.356;10.100;2023-03-26T03:09:04;99905.91;;;5.22;100.00
58843;BME280;44614;54.356;10.100;2023-03-26T03:11:30;99877.22;;;4.99;100.00
58843;BME280;44614;54.356;10.100;2023-03-26T03:13:55;99900.69;;;5.13;100.00
58843;BME280;44614;54.356;10.100;2023-03-26T03:16:21;99896.69;;;5.16;100.00
58843;BME280;44614;54.356;10.100;2023-03-26T03:18:46;99908.41;;;5.03;100.00
58843;BME280;44614;54.356;10.100;2023-03-26T03:21:18;99914.91;;;5.02;100.00
58843;BME280;44614;54.356;10.100;2023-03-26T03:23:43;99910.13;;;5.04;100.00
58843;BME280;44614;54.356;10.100;2023-03-26T03:26:13;99912.00;;;5.04;100.00
58843;BME280;44614;54.356;10.100;2023-03-26T03:28:39;99913.25;;;5.01;100.00
58843;BME280;44614;54.356;10.100;2023-03-26T03:31:05;99910.31;;;4.96;100.00
58843;BME280;44614;54.356;10.100;2023-03-26T03:33:33;99887.09;;;4.74;100.00
58843;BME280;44614;54.356;10.100;2023-03-26T03:35:58;99918.66;;;4.88;100.00
58843;BME280;44614;54.356;10.100;2023-03-26T03:38:23;99893.34;;;4.68;100.00
58843;BME280;44614;54.356;10.100;2023-03-26T03:40:49;99922.84;;;4.84;100.00
58843;BME280;44614;54.356;10.100;2023-03-26T03:43:15;99932.69;;;4.78;100.00
58843;BME280;44614;54.356;10.100;2023-03-26T03:45:40;99921.38;;;4.75;100.00
58843;BME280;44614;54.356;10.100;2023-03-26T03:48:05;99928.50;;;4.76;100.00
58843;BME280;44614;54.356;10.100;2023-03-26T03:50:31;99931.22;;;4.76;100.00
58843;BME280;44614;54.356;10.100;2023-03-26T03:52:56;99934.78;;;4.76;100.00
58843;BME280;44614;54.356;10.100;2023-03-26T03:55:24;99935.22;;;4.73;100.00
58843;BME280;44614;54.356;10.100;2023-03-26T03:57:52;99938.94;;;4.72;100.00
58843;BME280;44614;54.356;10.100;2023-03-26T04:00:17;99942.94;;;4.70;100.00
58843;BME280;44614;54.356;10.100;2023-03-26T04:02:43;99944.81;;;4.62;100.00
58843;BME280;44614;54.356;10.100;2023-03-26T04:05:11;99912.97;;;4.43;100.00
58843;BME280;44614;54.356;10.100;2023-03-26T04:07:36;99944.81;;;4.62;100.00
58843;BME280;44614;54.356;10.100;2023-03-26T04:10:04;99954.84;;;4.62;100.00
58843;BME280;44614;54.356;10.100;2023-03-26T04:12:30;99948.56;;;4.61;100.00
58843;BME280;44614;54.356;10.100;2023-03-26T04:14:57;99956.06;;;4.53;100.00
58843;BME280;44614;54.356;10.100;2023-03-26T04:17:22;99947.31;;;4.51;100.00
58843;BME280;44614;54.356;10.100;2023-03-26T04:19:49;99951.66;;;4.45;100.00
58843;BME280;44614;54.356;10.100;2023-03-26T04:22:17;99947.06;;;4.39;100.00
58843;BME280;44614;54.356;10.100;2023-03-26T04:24:43;99952.66;;;4.31;100.00
58843;BME280;44614;54.356;10.100;2023-03-26T04:27:12;99945.50;;;4.23;100.00
58843;BME280;44614;54.356;10.100;2023-03-26T04:29:44;99945.50;;;4.23;100.00
58843;BME280;44614;54.356;10.100;2023-03-26T04:32:23;99950.94;;;4.23;100.00
58843;BME280;44614;54.356;10.100;2023-03-26T04:34:55;99951.13;;;4.15;100.00
58843;BME280;44614;54.356;10.100;2023-03-26T04:37:26;99944.44;;;4.11;100.00
58843;BME280;44614;54.356;10.100;2023-03-26T04:39:56;99960.50;;;4.06;100.00
58843;BME280;44614;54.356;10.100;2023-03-26T04:42:21;99956.72;;;4.00;100.00
58843;BME280;44614;54.356;10.100;2023-03-26T04:44:47;99961.91;;;3.95;100.00
58843;BME280;44614;54.356;10.100;2023-03-26T04:47:16;99960.88;;;3.96;100.00
58843;BME280;44614;54.356;10.100;2023-03-26T04:49:42;99936.53;;;3.75;100.00
58843;BME280;44614;54.356;10.100;2023-03-26T04:52:09;99967.09;;;3.83;100.00
58843;BME280;44614;54.356;10.100;2023-03-26T04:54:35;99960.00;;;3.82;100.00
58843;BME280;44614;54.356;10.100;2023-03-26T04:57:07;99965.41;;;3.82;100.00
58843;BME280;44614;54.356;10.100;2023-03-26T04:59:37;99964.16;;;3.78;100.00
58843;BME280;44614;54.356;10.100;2023-03-26T05:02:05;99963.94;;;3.80;100.00
58843;BME280;44614;54.356;10.100;2023-03-26T05:04:32;99942.78;;;3.69;100.00
58843;BME280;44614;54.356;10.100;2023-03-26T05:07:03;99967.88;;;3.77;100.00
58843;BME280;44614;54.356;10.100;2023-03-26T05:09:29;99965.81;;;3.79;100.00
58843;BME280;44614;54.356;10.100;2023-03-26T05:11:54;99948.63;;;3.72;100.00
58843;BME280;44614;54.356;10.100;2023-03-26T05:14:21;99964.16;;;3.78;100.00
58843;BME280;44614;54.356;10.100;2023-03-26T05:16:47;99962.88;;;3.81;100.00
58843;BME280;44614;54.356;10.100;2023-03-26T05:19:14;99941.50;;;3.64;100.00
58843;BME280;44614;54.356;10.100;2023-03-26T05:21:40;99965.22;;;3.84;100.00
58843;BME280;44614;54.356;10.100;2023-03-26T05:24:05;99968.75;;;3.84;100.00
58843;BME280;44614;54.356;10.100;2023-03-26T05:26:32;99981.09;;;3.87;100.00
58843;BME280;44614;54.356;10.100;2023-03-26T05:28:57;99944.59;;;3.61;100.00
58843;BME280;44614;54.356;10.100;2023-03-26T05:31:23;99970.13;;;3.67;100.00
58843;BME280;44614;54.356;10.100;2023-03-26T05:33:51;99984.34;;;3.69;97.89
58843;BME280;44614;54.356;10.100;2023-03-26T05:36:16;99981.81;;;3.67;97.37
58843;BME280;44614;54.356;10.100;2023-03-26T05:38:43;99968.41;;;3.59;95.62
58843;BME280;44614;54.356;10.100;2023-03-26T05:41:14;99977.22;;;3.68;97.58
58843;BME280;44614;54.356;10.100;2023-03-26T05:43:40;99966.94;;;3.57;95.28
58843;BME280;44614;54.356;10.100;2023-03-26T05:46:05;99979.91;;;3.61;93.67
58843;BME280;44614;54.356;10.100;2023-03-26T05:48:31;99978.03;;;3.62;95.11
58843;BME280;44614;54.356;10.100;2023-03-26T05:50:57;99990.56;;;3.63;95.53
58843;BME280;44614;54.356;10.100;2023-03-26T05:53:24;99964.59;;;3.54;94.77
58843;BME280;44614;54.356;10.100;2023-03-26T05:55:50;99986.59;;;3.65;96.33
58843;BME280;44614;54.356;10.100;2023-03-26T05:58:20;99986.44;;;3.67;95.32
58843;BME280;44614;54.356;10.100;2023-03-26T06:00:45;99989.13;;;3.67;95.21
58843;BME280;44614;54.356;10.100;2023-03-26T06:03:12;99983.28;;;3.63;91.25
58843;BME280;44614;54.356;10.100;2023-03-26T06:05:39;99991.19;;;3.65;92.90
58843;BME280;44614;54.356;10.100;2023-03-26T06:08:05;99985.16;;;3.63;95.20
58843;BME280;44614;54.356;10.100;2023-03-26T06:10:30;99992.47;;;3.69;95.67
58843;BME280;44614;54.356;10.100;2023-03-26T06:12:56;99972.41;;;3.63;92.94
58843;BME280;44614;54.356;10.100;2023-03-26T06:15:22;99990.03;;;3.74;95.19
58843;BME280;44614;54.356;10.100;2023-03-26T06:17:47;99979.94;;;3.68;93.88
58843;BME280;44614;54.356;10.100;2023-03-26T06:20:13;99985.81;;;3.72;91.96
58843;BME280;44614;54.356;10.100;2023-03-26T06:22:39;100000.03;;;3.74;90.52
58843;BME280;44614;54.356;10.100;2023-03-26T06:25:05;100008.44;;;3.79;92.20
58843;BME280;44614;54.356;10.100;2023-03-26T06:27:30;99983.28;;;3.70;92.36
58843;BME280;44614;54.356;10.100;2023-03-26T06:29:55;99997.56;;;3.79;92.85
58843;BME280;44614;54.356;10.100;2023-03-26T06:32:21;99986.72;;;3.79;91.94
58843;BME280;44614;54.356;10.100;2023-03-26T06:34:46;100006.81;;;3.91;91.65
58843;BME280;44614;54.356;10.100;2023-03-26T06:37:12;100009.38;;;3.99;91.95
58843;BME280;44614;54.356;10.100;2023-03-26T06:39:37;100003.34;;;4.04;91.46
58843;BME280;44614;54.356;10.100;2023-03-26T06:42:02;100007.09;;;4.03;92.59
58843;BME280;44614;54.356;10.100;2023-03-26T06:44:28;100010.91;;;4.08;90.09
58843;BME280;44614;54.356;10.100;2023-03-26T06:46:53;99993.50;;;4.03;90.07
58843;BME280;44614;54.356;10.100;2023-03-26T06:49:18;100020.16;;;4.21;88.40
58843;BME280;44614;54.356;10.100;2023-03-26T06:51:44;100023.06;;;4.19;89.25
58843;BME280;44614;54.356;10.100;2023-03-26T06:54:10;100017.88;;;4.24;90.53
58843;BME280;44614;54.356;10.100;2023-03-26T06:56:36;100022.69;;;4.29;89.79
58843;BME280;44614;54.356;10.100;2023-03-26T06:59:01;100014.38;;;4.37;89.11
58843;BME280;44614;54.356;10.100;2023-03-26T07:01:26;100015.03;;;4.46;87.72
58843;BME280;44614;54.356;10.100;2023-03-26T07:03:52;100015.91;;;4.59;88.20
58843;BME280;44614;54.356;10.100;2023-03-26T07:06:17;100015.50;;;4.69;88.19
58843;BME280;44614;54.356;10.100;2023-03-26T07:08:42;100013.22;;;4.73;87.17
58843;BME280;44614;54.356;10.100;2023-03-26T07:11:08;100022.03;;;4.88;89.64
58843;BME280;44614;54.356;10.100;2023-03-26T07:13:33;100022.28;;;5.00;88.77
58843;BME280;44614;54.356;10.100;2023-03-26T07:15:58;100018.53;;;5.07;88.41
58843;BME280;44614;54.356;10.100;2023-03-26T07:18:24;100019.78;;;5.18;89.68
58843;BME280;44614;54.356;10.100;2023-03-26T07:20:50;100013.72;;;5.09;85.38
58843;BME280;44614;54.356;10.100;2023-03-26T07:23:15;100025.06;;;5.20;85.55
58843;BME280;44614;54.356;10.100;2023-03-26T07:25:46;100016.88;;;5.13;85.21
58843;BME280;44614;54.356;10.100;2023-03-26T07:28:16;100019.38;;;5.08;84.83
58843;BME280;44614;54.356;10.100;2023-03-26T07:33:24;100025.66;;;5.02;85.31
58843;BME280;44614;54.356;10.100;2023-03-26T07:46:35;100015.38;;;5.10;85.26
58843;BME280;44614;54.356;10.100;2023-03-26T07:49:02;100004.50;;;5.10;84.97
58843;BME280;44614;54.356;10.100;2023-03-26T07:51:28;100043.25;;;5.26;77.78
58843;BME280;44614;54.356;10.100;2023-03-26T07:53:55;100041.38;;;5.33;83.57
58843;BME280;44614;54.356;10.100;2023-03-26T07:56:51;100033.84;;;5.42;82.64
58843;BME280;44614;54.356;10.100;2023-03-26T07:59:21;100037.19;;;5.37;74.68
58843;BME280;44614;54.356;10.100;2023-03-26T08:05:08;100037.84;;;5.39;81.68
58843;BME280;44614;54.356;10.100;2023-03-26T08:21:05;100040.13;;;5.49;80.70
58843;BME280;44614;54.356;10.100;2023-03-26T08:26:29;100040.13;;;5.82;83.81
58843;BME280;44614;54.356;10.100;2023-03-26T08:29:24;100030.28;;;5.94;81.70
58843;BME280;44614;54.356;10.100;2023-03-26T08:31:53;100033.63;;;5.96;79.95
58843;BME280;44614;54.356;10.100;2023-03-26T08:34:21;100048.69;;;6.05;82.43
58843;BME280;44614;54.356;10.100;2023-03-26T08:36:47;100035.50;;;6.02;80.41
58843;BME280;44614;54.356;10.100;2023-03-26T08:39:12;100058.78;;;5.98;80.15
58843;BME280;44614;54.356;10.100;2023-03-26T08:44:43;100043.69;;;5.96;78.17
58843;BME280;44614;54.356;10.100;2023-03-26T09:01:30;100034.47;;;5.63;78.47
58843;BME280;44614;54.356;10.100;2023-03-26T09:17:53;100063.22;;;6.57;73.64
58843;BME280;44614;54.356;10.100;2023-03-26T09:29:32;100048.84;;;6.82;77.08
58843;BME280;44614;54.356;10.100;2023-03-26T09:40:16;100045.22;;;6.95;73.26
58843;BME280;44614;54.356;10.100;2023-03-26T09:56:32;100047.13;;;7.51;70.99
58843;BME280;44614;54.356;10.100;2023-03-26T10:10:10;100041.84;;;7.24;74.69
58843;BME280;44614;54.356;10.100;2023-03-26T10:12:42;100052.31;;;7.34;75.12
58843;BME280;44614;54.356;10.100;2023-03-26T10:23:51;100048.94;;;7.82;72.03
58843;BME280;44614;54.356;10.100;2023-03-26T10:29:16;100044.44;;;7.94;71.60
58843;BME280;44614;54.356;10.100;2023-03-26T10:34:57;100056.75;;;8.03;71.95
58843;BME280;44614;54.356;10.100;2023-03-26T10:37:44;99984.19;;;7.64;72.74
58843;BME280;44614;54.356;10.100;2023-03-26T10:40:26;100051.53;;;8.02;71.37
58843;BME280;44614;54.356;10.100;2023-03-26T10:43:16;100050.94;;;7.93;71.51
58843;BME280;44614;54.356;10.100;2023-03-26T10:51:57;100015.19;;;7.95;71.21
58843;BME280;44614;54.356;10.100;2023-03-26T10:54:37;100045.28;;;7.95;69.35
58843;BME280;44614;54.356;10.100;2023-03-26T10:57:16;99987.09;;;7.44;72.57
58843;BME280;44614;54.356;10.100;2023-03-26T10:59:44;100051.44;;;7.90;73.65
58843;BME280;44614;54.356;10.100;2023-03-26T11:02:27;100061.88;;;7.93;69.13
58843;BME280;44614;54.356;10.100;2023-03-26T11:05:18;100048.44;;;7.92;69.04
58843;BME280;44614;54.356;10.100;2023-03-26T11:07:57;100051.28;;;8.03;72.04
58843;BME280;44614;54.356;10.100;2023-03-26T11:13:07;100060.84;;;8.13;70.99
58843;BME280;44614;54.356;10.100;2023-03-26T11:15:45;100048.50;;;8.28;71.71
58843;BME280;44614;54.356;10.100;2023-03-26T11:18:49;100052.56;;;8.44;68.65
58843;BME280;44614;54.356;10.100;2023-03-26T11:21:20;100053.28;;;8.33;70.14
58843;BME280;44614;54.356;10.100;2023-03-26T11:29:33;100062.50;;;8.39;71.16
58843;BME280;44614;54.356;10.100;2023-03-26T11:32:12;100082.09;;;8.36;72.02
58843;BME280;44614;54.356;10.100;2023-03-26T11:34:44;100075.09;;;8.21;61.65
58843;BME280;44614;54.356;10.100;2023-03-26T11:37:17;100082.47;;;8.21;67.63
58843;BME280;44614;54.356;10.100;2023-03-26T11:39:49;100079.75;;;8.39;72.93
58843;BME280;44614;54.356;10.100;2023-03-26T11:42:17;100073.00;;;8.60;73.70
58843;BME280;44614;54.356;10.100;2023-03-26T11:44:53;100067.91;;;8.64;73.10
58843;BME280;44614;54.356;10.100;2023-03-26T11:47:23;100082.44;;;8.64;73.19
58843;BME280;44614;54.356;10.100;2023-03-26T11:49:54;100082.56;;;8.69;72.71
58843;BME280;44614;54.356;10.100;2023-03-26T11:52:21;100077.78;;;8.65;66.76
58843;BME280;44614;54.356;10.100;2023-03-26T11:54:47;100080.31;;;8.66;70.05
58843;BME280;44614;54.356;10.100;2023-03-26T11:57:21;100062.13;;;8.53;69.43
58843;BME280;44614;54.356;10.100;2023-03-26T11:59:56;100084.91;;;8.66;66.90
58843;BME280;44614;54.356;10.100;2023-03-26T12:02:27;100068.44;;;8.54;64.21
58843;BME280;44614;54.356;10.100;2023-03-26T12:07:51;100080.59;;;8.76;71.42
58843;BME280;44614;54.356;10.100;2023-03-26T12:10:33;100077.47;;;8.73;70.53
58843;BME280;44614;54.356;10.100;2023-03-26T12:13:28;100082.81;;;8.68;64.75
58843;BME280;44614;54.356;10.100;2023-03-26T12:18:33;100084.53;;;8.62;71.44
58843;BME280;44614;54.356;10.100;2023-03-26T12:21:09;100079.16;;;8.74;70.11
58843;BME280;44614;54.356;10.100;2023-03-26T12:23:41;100074.13;;;8.89;70.38
58843;BME280;44614;54.356;10.100;2023-03-26T12:26:14;100085.13;;;9.01;67.78
58843;BME280;44614;54.356;10.100;2023-03-26T12:28:46;100083.19;;;9.20;70.00
58843;BME280;44614;54.356;10.100;2023-03-26T12:31:12;100077.25;;;9.35;68.77
58843;BME280;44614;54.356;10.100;2023-03-26T12:33:42;100084.13;;;9.56;68.89
58843;BME280;44614;54.356;10.100;2023-03-26T12:36:42;100081.56;;;9.42;56.96
58843;BME280;44614;54.356;10.100;2023-03-26T12:39:00;100084.56;;;9.41;68.38
58843;BME280;44614;54.356;10.100;2023-03-26T12:41:35;100092.38;;;9.25;63.71
58843;BME280;44614;54.356;10.100;2023-03-26T12:44:27;100089.34;;;9.57;60.21
58843;BME280;44614;54.356;10.100;2023-03-26T12:49:33;100093.19;;;11.14;62.44
58843;BME280;44614;54.356;10.100;2023-03-26T12:52:23;100082.50;;;11.29;54.48
58843;BME280;44614;54.356;10.100;2023-03-26T12:57:32;100091.69;;;12.14;64.31
58843;BME280;44614;54.356;10.100;2023-03-26T13:02:43;100073.38;;;13.29;65.79
58843;BME280;44614;54.356;10.100;2023-03-26T13:15:49;100077.00;;;12.47;66.35
58843;BME280;44614;54.356;10.100;2023-03-26T13:24:14;100047.97;;;11.67;53.38
58843;BME280;44614;54.356;10.100;2023-03-26T13:29:39;100078.28;;;11.38;60.70
58843;BME280;44614;54.356;10.100;2023-03-26T13:35:18;100073.19;;;11.30;54.71
58843;BME280;44614;54.356;10.100;2023-03-26T13:37:55;100075.59;;;11.27;65.22
58843;BME280;44614;54.356;10.100;2023-03-26T13:40:29;100069.88;;;11.62;65.32
58843;BME280;44614;54.356;10.100;2023-03-26T13:43:13;100073.00;;;12.16;61.74
58843;BME280;44614;54.356;10.100;2023-03-26T13:46:03;100074.81;;;12.27;61.98
58843;BME280;44614;54.356;10.100;2023-03-26T13:48:45;100062.69;;;12.28;62.56
58843;BME280;44614;54.356;10.100;2023-03-26T13:51:22;100073.22;;;12.31;62.37
58843;BME280;44614;54.356;10.100;2023-03-26T13:53:54;100076.34;;;11.84;64.42
58843;BME280;44614;54.356;10.100;2023-03-26T13:56:28;100074.00;;;11.31;64.69
58843;BME280;44614;54.356;10.100;2023-03-26T13:59:05;100077.50;;;10.97;65.02
58843;BME280;44614;54.356;10.100;2023-03-26T14:01:43;100072.91;;;11.15;65.30
58843;BME280;44614;54.356;10.100;2023-03-26T14:04:22;100034.03;;;11.23;61.19
58843;BME280;44614;54.356;10.100;2023-03-26T14:06:59;100073.84;;;12.00;61.93
58843;BME280;44614;54.356;10.100;2023-03-26T14:09:35;100071.91;;;12.17;56.00
58843;BME280;44614;54.356;10.100;2023-03-26T14:15:05;100066.63;;;12.71;59.63
58843;BME280;44614;54.356;10.100;2023-03-26T14:25:45;100073.41;;;13.34;55.62
58843;BME280;44614;54.356;10.100;2023-03-26T14:34:01;100079.53;;;12.92;62.01
58843;BME280;44614;54.356;10.100;2023-03-26T14:42:07;100102.47;;;11.70;66.58
58843;BME280;44614;54.356;10.100;2023-03-26T14:47:19;100089.34;;;11.89;64.83
58843;BME280;44614;54.356;10.100;2023-03-26T14:50:07;100093.69;;;11.85;66.11
58843;BME280;44614;54.356;10.100;2023-03-26T14:52:51;100093.84;;;12.12;65.79
58843;BME280;44614;54.356;10.100;2023-03-26T14:55:49;100087.97;;;11.75;55.93
58843;BME280;44614;54.356;10.100;2023-03-26T15:17:17;100115.25;;;10.38;65.54
58843;BME280;44614;54.356;10.100;2023-03-26T15:20:21;100116.94;;;9.74;61.91
58843;BME280;44614;54.356;10.100;2023-03-26T15:23:32;100112.75;;;9.71;66.75
58843;BME280;44614;54.356;10.100;2023-03-26T15:34:17;100126.88;;;10.10;65.33
58843;BME280;44614;54.356;10.100;2023-03-26T15:43:05;100125.97;;;10.28;59.00
58843;BME280;44614;54.356;10.100;2023-03-26T15:45:39;100134.13;;;9.81;64.87
58843;BME280;44614;54.356;10.100;2023-03-26T15:51:13;100136.53;;;9.89;67.61
58843;BME280;44614;54.356;10.100;2023-03-26T15:56:24;100141.81;;;9.61;67.35
58843;BME280;44614;54.356;10.100;2023-03-26T16:01:41;100146.66;;;8.98;65.63
58843;BME280;44614;54.356;10.100;2023-03-26T16:12:53;100150.03;;;9.00;65.46
58843;BME280;44614;54.356;10.100;2023-03-26T16:15:28;100156.25;;;8.71;66.74
58843;BME280;44614;54.356;10.100;2023-03-26T16:20:47;100166.75;;;8.74;69.62
58843;BME280;44614;54.356;10.100;2023-03-26T16:26:11;100168.56;;;8.80;68.99
58843;BME280;44614;54.356;10.100;2023-03-26T16:36:32;100180.88;;;8.52;68.64
58843;BME280;44614;54.356;10.100;2023-03-26T16:41:28;100186.13;;;8.29;66.67
58843;BME280;44614;54.356;10.100;2023-03-26T16:44:09;100193.50;;;8.28;68.27
58843;BME280;44614;54.356;10.100;2023-03-26T16:46:47;100204.75;;;8.14;66.50
58843;BME280;44614;54.356;10.100;2023-03-26T16:59:55;100218.34;;;7.95;69.04
58843;BME280;44614;54.356;10.100;2023-03-26T17:02:32;100219.63;;;7.93;69.46
58843;BME280;44614;54.356;10.100;2023-03-26T17:05:24;100224.28;;;7.86;69.11
58843;BME280;44614;54.356;10.100;2023-03-26T17:08:13;100226.28;;;7.72;69.21
58843;BME280;44614;54.356;10.100;2023-03-26T17:16:26;100240.47;;;7.55;69.70
58843;BME280;44614;54.356;10.100;2023-03-26T17:21:40;100232.41;;;7.29;69.61
58843;BME280;44614;54.356;10.100;2023-03-26T17:30:44;100258.72;;;7.10;69.79
58843;BME280;44614;54.356;10.100;2023-03-26T17:33:21;100265.69;;;6.99;70.20
58843;BME280;44614;54.356;10.100;2023-03-26T17:41:04;100268.66;;;6.71;70.77
58843;BME280;44614;54.356;10.100;2023-03-26T17:46:00;100276.41;;;6.68;71.01
58843;BME280;44614;54.356;10.100;2023-03-26T17:48:29;100267.44;;;6.61;71.16
58843;BME280;44614;54.356;10.100;2023-03-26T17:51:05;100267.84;;;6.51;71.00
58843;BME280;44614;54.356;10.100;2023-03-26T17:53:39;100277.72;;;6.45;70.93
58843;BME280;44614;54.356;10.100;2023-03-26T17:56:13;100288.41;;;6.40;69.47
58843;BME280;44614;54.356;10.100;2023-03-26T17:58:45;100296.16;;;6.37;70.78
58843;BME280;44614;54.356;10.100;2023-03-26T18:04:18;100291.31;;;6.25;70.83
58843;BME280;44614;54.356;10.100;2023-03-26T18:07:22;100302.44;;;6.24;70.55
58843;BME280;44614;54.356;10.100;2023-03-26T18:12:52;100296.97;;;6.04;69.42
58843;BME280;44614;54.356;10.100;2023-03-26T18:18:13;100317.25;;;5.95;70.43
58843;BME280;44614;54.356;10.100;2023-03-26T18:20:44;100318.25;;;5.87;70.58